Time;durP1;ratioP1;P1;durP2;ratioP2;P2;SDS_P1;SDS_P2;PMS_P1;PMS_P2;Temp;Humidity;BMP_temperature;BMP_pressure;BME280_temperature;BME280_humidity;BME280_pressure;Samples;Min_cycle;Max_cycle;Signal;HPM_P1;HPM_P2
2022/10/16 00:01:31;;;;;;;6.82;3.78;;;;;;;10.78;nan;-24118.03;5092569;28;20242;-78
2022/10/16 00:03:58;;;;;;;5.28;3.20;;;;;;;10.80;nan;-24118.75;5092347;28;20533;-78
2022/10/16 00:06:25;;;;;;;7.80;4.15;;;;;;;10.62;nan;-24113.81;5074031;28;20189;-78
2022/10/16 00:08:51;;;;;;;5.07;3.43;;;;;;;10.40;nan;-24107.47;5074152;28;20538;-78
2022/10/16 00:11:29;;;;;;;6.60;3.60;;;;;;;10.25;nan;-24103.38;5074449;28;20233;-79
2022/10/16 00:13:57;;;;;;;7.22;3.97;;;;;;;10.04;nan;-24097.44;5092437;28;20260;-74
2022/10/16 00:16:23;;;;;;;7.53;3.70;;;;;;;9.88;nan;-24092.91;5091510;28;20189;-73
2022/10/16 00:18:48;;;;;;;8.83;4.30;;;;;;;9.70;nan;-24087.97;5073749;28;20227;-78
2022/10/16 00:21:18;;;;;;;7.80;4.30;;;;;;;10.05;nan;-24097.88;5073577;28;20276;-77
2022/10/16 00:23:44;;;;;;;5.03;3.70;;;;;;;9.63;nan;-24086.13;5091846;28;20260;-75
2022/10/16 00:26:12;;;;;;;4.33;3.40;;;;;;;9.93;nan;-24094.34;5092174;28;20209;-80
2022/10/16 00:28:38;;;;;;;7.60;3.90;;;;;;;9.85;nan;-24092.06;5072321;28;20180;-75
2022/10/16 00:31:11;;;;;;;5.07;3.67;;;;;;;9.68;nan;-24087.56;5073445;28;20197;-75
2022/10/16 00:33:39;;;;;;;5.07;3.20;;;;;;;9.52;nan;-24082.91;5091683;28;20192;-76
2022/10/16 00:36:07;;;;;;;5.63;3.50;;;;;;;9.36;nan;-24078.50;5073097;28;20186;-79
2022/10/16 00:38:33;;;;;;;5.90;3.90;;;;;;;9.29;nan;-24076.66;5091848;28;20165;-75
2022/10/16 00:40:58;;;;;;;5.30;3.47;;;;;;;9.43;nan;-24080.34;5073217;28;20177;-75
2022/10/16 00:43:42;;;;;;;6.27;3.53;;;;;;;9.68;nan;-24087.56;5091563;28;20170;-73
2022/10/16 00:46:17;;;;;;;6.27;3.70;;;;;;;9.22;nan;-24074.69;5072622;28;20204;-77
2022/10/16 00:48:51;;;;;;;5.07;3.60;;;;;;;9.55;nan;-24083.88;5091292;28;20215;-75
2022/10/16 00:51:20;;;;;;;8.47;3.53;;;;;;;9.47;nan;-24081.47;5073099;28;20298;-77
2022/10/16 00:53:46;;;;;;;4.87;3.50;;;;;;;9.55;nan;-24083.75;5094437;28;20169;-73
2022/10/16 00:56:11;;;;;;;5.93;4.13;;;;;;;9.17;nan;-24073.13;5095082;28;20165;-77
2022/10/16 00:58:37;;;;;;;7.70;4.10;;;;;;;9.28;nan;-24076.38;5096129;28;20161;-75
2022/10/16 01:01:02;;;;;;;8.90;4.03;;;;;;;9.26;nan;-24075.69;5094190;28;20173;-79
2022/10/16 01:03:31;;;;;;;6.63;4.07;;;;;;;9.45;nan;-24080.91;5095764;28;20370;-75
2022/10/16 01:06:19;;;;;;;7.83;4.10;;;;;;;9.61;nan;-24085.44;5095696;28;20177;-74
2022/10/16 01:08:58;;;;;;;11.60;6.60;;;;;;;9.27;nan;-24075.97;5095703;28;20173;-79
2022/10/16 01:11:48;;;;;;;26.00;12.67;;;;;;;9.17;nan;-24073.28;5076837;28;20199;-76
2022/10/16 01:14:26;;;;;;;21.53;11.53;;;;;;;9.27;nan;-24075.97;5095792;28;20177;-76
2022/10/16 01:17:22;;;;;;;27.90;15.07;;;;;;;9.27;nan;-24075.97;5077257;28;20275;-76
2022/10/16 01:20:07;;;;;;;27.17;15.40;;;;;;;8.22;nan;-24046.53;5095104;28;20172;-77
2022/10/16 01:23:06;;;;;;;31.57;15.10;;;;;;;9.11;nan;-24071.44;5077155;28;20173;-75
2022/10/16 01:25:52;;;;;;;31.63;16.67;;;;;;;9.00;nan;-24068.34;5055248;28;20258;-75
2022/10/16 01:28:22;;;;;;;30.67;16.47;;;;;;;8.96;nan;-24067.34;5095077;28;20161;-80
2022/10/16 01:30:52;;;;;;;24.73;12.43;;;;;;;8.93;nan;-24066.34;5076769;28;20775;-74
2022/10/16 01:33:27;;;;;;;19.50;10.60;;;;;;;9.11;nan;-24071.44;5077062;28;20586;-77
2022/10/16 01:35:58;;;;;;;9.87;6.13;;;;;;;8.85;nan;-24064.22;5076901;28;20185;-76
2022/10/16 01:38:46;;;;;;;10.43;5.73;;;;;;;8.23;nan;-24046.81;5095166;28;20173;-74
2022/10/16 01:41:19;;;;;;;7.97;4.53;;;;;;;8.74;nan;-24061.25;5095039;28;20172;-75
2022/10/16 01:44:04;;;;;;;11.23;5.50;;;;;;;8.63;nan;-24058.00;5094829;28;20165;-77
2022/10/16 01:46:31;;;;;;;9.47;5.20;;;;;;;8.91;nan;-24065.78;5095029;28;20177;-76
2022/10/16 01:48:59;;;;;;;12.80;5.23;;;;;;;8.92;nan;-24066.22;5093801;28;20197;-78
2022/10/16 01:51:25;;;;;;;6.30;4.37;;;;;;;8.61;nan;-24057.56;5094423;28;20569;-80
2022/10/16 01:53:56;;;;;;;7.43;4.67;;;;;;;8.68;nan;-24059.56;5094370;28;20697;-76
2022/10/16 01:56:24;;;;;;;7.43;4.83;;;;;;;8.85;nan;-24064.38;5094208;28;20181;-77
2022/10/16 01:58:55;;;;;;;9.70;4.73;;;;;;;8.87;nan;-24064.78;5094754;28;20165;-78
2022/10/16 02:01:25;;;;;;;10.30;5.30;;;;;;;8.71;nan;-24060.25;5094646;28;20260;-78
2022/10/16 02:03:56;;;;;;;7.97;4.87;;;;;;;8.75;nan;-24061.53;5093589;28;20647;-76
2022/10/16 02:06:22;;;;;;;9.80;4.67;;;;;;;8.24;nan;-24047.25;5093995;28;20204;-76
2022/10/16 02:08:48;;;;;;;6.40;4.50;;;;;;;8.23;nan;-24046.81;5093853;28;20608;-74
2022/10/16 02:11:13;;;;;;;6.47;4.03;;;;;;;8.54;nan;-24055.47;5094135;28;20200;-75
2022/10/16 02:13:47;;;;;;;9.60;4.77;;;;;;;8.37;nan;-24050.94;5075960;28;20672;-76
2022/10/16 02:16:14;;;;;;;8.23;4.93;;;;;;;8.51;nan;-24054.59;5075784;28;20185;-76
2022/10/16 02:18:42;;;;;;;8.87;4.50;;;;;;;8.42;nan;-24052.34;5075819;28;20197;-78
2022/10/16 02:21:28;;;;;;;6.77;4.43;;;;;;;8.47;nan;-24053.63;5096065;28;20681;-72
2022/10/16 02:24:14;;;;;;;7.27;3.67;;;;;;;8.37;nan;-24050.94;5105947;28;20217;-73
2022/10/16 02:26:49;;;;;;;7.33;4.20;;;;;;;8.26;nan;-24047.81;5093971;28;20173;-74
2022/10/16 02:29:21;;;;;;;9.73;4.47;;;;;;;7.90;nan;-24037.75;5093996;28;20179;-77
2022/10/16 02:31:50;;;;;;;5.23;3.77;;;;;;;7.90;nan;-24037.75;5094163;28;20603;-75
2022/10/16 02:34:18;;;;;;;5.90;3.83;;;;;;;7.83;nan;-24035.78;5075793;28;20264;-79
2022/10/16 02:36:45;;;;;;;8.33;3.97;;;;;;;7.66;nan;-24030.94;5094511;28;20165;-78
2022/10/16 02:39:11;;;;;;;6.83;3.77;;;;;;;7.51;nan;-24026.84;5093821;28;20162;-79
2022/10/16 02:41:37;;;;;;;7.10;4.07;;;;;;;7.51;nan;-24026.84;5092913;28;20173;-77
2022/10/16 02:44:03;;;;;;;8.43;4.17;;;;;;;7.73;nan;-24032.78;5093945;28;20177;-75
2022/10/16 02:46:28;;;;;;;6.27;4.17;;;;;;;7.61;nan;-24029.53;5093280;28;20662;-80
2022/10/16 02:48:53;;;;;;;7.03;3.90;;;;;;;7.62;nan;-24029.69;5075073;28;20785;-76
2022/10/16 02:51:19;;;;;;;5.37;4.23;;;;;;;7.78;nan;-24034.34;5075442;28;20764;-79
2022/10/16 02:53:44;;;;;;;5.30;4.17;;;;;;;7.75;nan;-24033.50;5093282;28;20754;-79
2022/10/16 02:56:10;;;;;;;6.93;3.90;;;;;;;7.79;nan;-24034.50;5093692;28;20177;-79
2022/10/16 02:58:35;;;;;;;6.53;4.27;;;;;;;7.80;nan;-24034.91;5093139;28;20267;-77
2022/10/16 03:01:01;;;;;;;7.30;4.50;;;;;;;6.09;nan;-23986.97;5093025;28;20197;-76
2022/10/16 03:03:26;;;;;;;5.97;4.07;;;;;;;7.68;nan;-24031.53;5075139;28;20180;-76
2022/10/16 03:05:52;;;;;;;9.33;4.17;;;;;;;7.78;nan;-24034.34;5093296;28;20230;-77
2022/10/16 03:08:23;;;;;;;7.37;4.07;;;;;;;7.63;nan;-24030.09;5074406;28;20185;-77
2022/10/16 03:10:48;;;;;;;5.70;3.83;;;;;;;6.95;nan;-24011.09;5092618;28;20196;-73
2022/10/16 03:13:13;;;;;;;4.93;3.67;;;;;;;7.53;nan;-24027.41;5074228;28;20181;-74
2022/10/16 03:15:39;;;;;;;9.70;3.60;;;;;;;7.76;nan;-24033.78;5092633;28;20659;-75
2022/10/16 03:18:04;;;;;;;6.77;3.50;;;;;;;7.35;nan;-24022.31;5093068;28;20181;-75
2022/10/16 03:20:29;;;;;;;7.40;4.13;;;;;;;7.29;nan;-24020.47;5093381;28;20186;-75
2022/10/16 03:22:55;;;;;;;7.07;4.10;;;;;;;7.59;nan;-24028.97;5092676;28;20217;-76
2022/10/16 03:25:20;;;;;;;6.00;3.87;;;;;;;7.59;nan;-24028.97;5074828;28;20178;-76
2022/10/16 03:27:46;;;;;;;6.27;4.23;;;;;;;7.36;nan;-24022.59;5092855;28;20641;-76
2022/10/16 03:30:12;;;;;;;8.70;3.77;;;;;;;7.44;nan;-24024.72;5092328;28;20169;-75
2022/10/16 03:32:37;;;;;;;5.70;3.73;;;;;;;7.36;nan;-24022.44;5092540;28;20177;-78
2022/10/16 03:35:03;;;;;;;7.97;4.17;;;;;;;7.06;nan;-24014.22;5092827;28;20170;-77
2022/10/16 03:37:28;;;;;;;5.20;3.63;;;;;;;7.32;nan;-24021.31;5092930;28;20194;-78
2022/10/16 03:39:53;;;;;;;8.87;4.67;;;;;;;7.07;nan;-24014.50;5092722;28;20184;-76
2022/10/16 03:42:19;;;;;;;5.83;3.77;;;;;;;7.09;nan;-24015.06;5093000;28;20533;-76
2022/10/16 03:44:44;;;;;;;8.73;4.07;;;;;;;7.36;nan;-24022.59;5092990;28;20701;-77
2022/10/16 03:47:10;;;;;;;7.03;4.10;;;;;;;7.03;nan;-24013.38;5093391;28;20177;-76
2022/10/16 03:49:35;;;;;;;5.93;4.07;;;;;;;7.53;nan;-24027.28;5092648;28;20166;-76
2022/10/16 03:52:01;;;;;;;5.20;3.70;;;;;;;7.27;nan;-24019.91;5093177;28;20193;-74
2022/10/16 03:54:26;;;;;;;6.00;4.17;;;;;;;7.40;nan;-24023.59;5092799;28;20170;-79
2022/10/16 03:56:51;;;;;;;5.97;3.80;;;;;;;7.22;nan;-24018.63;5074533;28;20268;-78
2022/10/16 03:59:17;;;;;;;5.90;4.17;;;;;;;7.49;nan;-24026.13;5092256;28;20493;-79
2022/10/16 04:01:42;;;;;;;5.20;3.77;;;;;;;6.54;nan;-23999.47;5072245;28;20185;-75
2022/10/16 04:04:08;;;;;;;12.70;4.30;;;;;;;7.14;nan;-24016.22;5092301;28;20625;-76
2022/10/16 04:06:33;;;;;;;6.63;4.30;;;;;;;7.11;nan;-24015.50;5092251;28;20270;-79
2022/10/16 04:08:59;;;;;;;6.43;3.73;;;;;;;7.35;nan;-24022.31;5092581;28;20544;-80
2022/10/16 04:11:24;;;;;;;8.50;3.67;;;;;;;7.41;nan;-24023.88;5091875;28;20213;-77
2022/10/16 04:13:49;;;;;;;4.90;4.20;;;;;;;7.24;nan;-24019.03;5073351;28;20177;-75
2022/10/16 04:16:15;;;;;;;5.43;3.67;;;;;;;7.20;nan;-24017.91;5073617;28;20692;-76
2022/10/16 04:18:40;;;;;;;5.83;4.00;;;;;;;7.05;nan;-24013.94;5091900;28;20570;-76
2022/10/16 04:21:06;;;;;;;6.03;4.03;;;;;;;6.93;nan;-24010.41;5073213;28;20271;-77
2022/10/16 04:23:32;;;;;;;5.63;3.80;;;;;;;6.56;nan;-24000.03;5073755;28;20224;-78
2022/10/16 04:25:57;;;;;;;6.80;4.43;;;;;;;6.90;nan;-24009.69;5092099;28;20286;-76
2022/10/16 04:28:23;;;;;;;6.13;4.20;;;;;;;6.88;nan;-24008.97;5090677;28;20273;-78
2022/10/16 04:30:48;;;;;;;6.57;4.80;;;;;;;6.86;nan;-24008.41;5091665;28;20226;-77
2022/10/16 04:33:14;;;;;;;4.07;3.23;;;;;;;6.96;nan;-24011.38;5090579;28;20613;-79
2022/10/16 04:35:39;;;;;;;7.10;4.10;;;;;;;6.72;nan;-24004.44;5092100;28;20173;-77
2022/10/16 04:38:05;;;;;;;5.57;3.30;;;;;;;6.65;nan;-24002.59;5073830;28;20174;-75
2022/10/16 04:40:35;;;;;;;7.83;3.70;;;;;;;6.66;nan;-24003.00;5092041;28;20267;-80
2022/10/16 04:43:01;;;;;;;5.20;3.67;;;;;;;6.88;nan;-24009.13;5092260;28;20196;-75
2022/10/16 04:45:26;;;;;;;6.13;3.40;;;;;;;6.96;nan;-24011.38;5073628;28;20620;-77
2022/10/16 04:47:51;;;;;;;6.50;4.50;;;;;;;6.78;nan;-24006.13;5073540;28;20177;-75
2022/10/16 04:50:17;;;;;;;7.73;4.40;;;;;;;6.75;nan;-24005.44;5091442;28;20337;-79
2022/10/16 04:52:42;;;;;;;6.50;3.47;;;;;;;7.05;nan;-24013.94;5073660;28;20178;-76
2022/10/16 04:55:08;;;;;;;6.50;3.60;;;;;;;6.89;nan;-24009.41;5091652;28;20650;-75
2022/10/16 04:57:35;;;;;;;7.93;4.13;;;;;;;6.94;nan;-24010.69;5092317;28;20169;-76
2022/10/16 05:00:02;;;;;;;8.43;3.60;;;;;;;7.13;nan;-24015.94;5091936;28;20670;-78
2022/10/16 05:02:34;;;;;;;8.07;3.67;;;;;;;7.14;nan;-24016.22;5095950;28;20157;-78
2022/10/16 05:04:59;;;;;;;5.60;3.77;;;;;;;7.07;nan;-24014.50;5097993;28;20199;-73
2022/10/16 05:07:25;;;;;;;5.17;3.73;;;;;;;7.24;nan;-24019.03;5075507;28;20177;-77
2022/10/16 05:09:50;;;;;;;6.83;4.13;;;;;;;6.98;nan;-24011.94;5092664;28;20713;-77
2022/10/16 05:12:16;;;;;;;5.37;3.67;;;;;;;7.07;nan;-24014.38;5092400;28;20212;-74
2022/10/16 05:14:41;;;;;;;7.40;3.77;;;;;;;7.54;nan;-24027.56;5092412;28;20181;-80
2022/10/16 05:17:07;;;;;;;6.27;4.40;;;;;;;7.45;nan;-24025.00;5092539;28;20181;-78
2022/10/16 05:19:32;;;;;;;7.13;3.40;;;;;;;7.25;nan;-24019.34;5091777;28;20540;-77
2022/10/16 05:21:58;;;;;;;8.67;3.53;;;;;;;7.54;nan;-24027.56;5092811;28;20245;-79
2022/10/16 05:24:23;;;;;;;4.53;3.33;;;;;;;7.83;nan;-24035.78;5091800;28;20220;-77
2022/10/16 05:26:49;;;;;;;5.63;3.80;;;;;;;7.88;nan;-24037.03;5092281;28;20184;-76
2022/10/16 05:29:15;;;;;;;3.97;2.90;;;;;;;8.03;nan;-24041.16;5073898;28;20181;-79
2022/10/16 05:31:40;;;;;;;8.93;4.03;;;;;;;8.13;nan;-24044.13;5092033;28;20272;-76
2022/10/16 05:34:05;;;;;;;6.37;3.57;;;;;;;7.98;nan;-24040.03;5091856;28;20553;-76
2022/10/16 05:36:31;;;;;;;4.93;3.33;;;;;;;8.20;nan;-24046.09;5073798;28;20209;-76
2022/10/16 05:38:56;;;;;;;5.70;3.47;;;;;;;8.08;nan;-24042.56;5074793;28;20707;-77
2022/10/16 05:41:23;;;;;;;8.00;4.80;;;;;;;7.07;nan;-24014.38;5095127;28;20188;-77
2022/10/16 05:43:49;;;;;;;8.63;4.77;;;;;;;8.44;nan;-24052.78;5077096;28;20182;-74
2022/10/16 05:46:15;;;;;;;8.57;4.60;;;;;;;8.50;nan;-24054.31;5094954;28;20177;-76
2022/10/16 05:48:40;;;;;;;5.97;3.53;;;;;;;8.60;nan;-24057.16;5094945;28;20173;-75
2022/10/16 05:51:09;;;;;;;8.60;4.57;;;;;;;8.60;nan;-24057.16;5076896;28;20274;-77
2022/10/16 05:53:36;;;;;;;7.43;3.87;;;;;;;8.72;nan;-24060.69;5077455;28;20184;-76
2022/10/16 05:56:02;;;;;;;5.50;3.43;;;;;;;9.08;nan;-24070.59;5095482;28;20169;-77
2022/10/16 05:58:31;;;;;;;6.20;4.00;;;;;;;9.31;nan;-24077.09;5095067;28;20170;-78
2022/10/16 06:00:59;;;;;;;8.77;4.63;;;;;;;9.43;nan;-24080.50;5094883;28;20355;-76
2022/10/16 06:03:24;;;;;;;7.27;4.33;;;;;;;9.32;nan;-24077.53;5095454;28;20710;-75
2022/10/16 06:05:50;;;;;;;6.40;4.50;;;;;;;9.68;nan;-24087.56;5077338;28;20229;-76
2022/10/16 06:08:17;;;;;;;10.63;4.80;;;;;;;9.31;nan;-24077.09;5095666;28;20504;-75
2022/10/16 06:10:43;;;;;;;8.63;5.47;;;;;;;9.61;nan;-24085.56;5094189;28;20200;-79
2022/10/16 06:13:09;;;;;;;6.57;4.17;;;;;;;9.91;nan;-24093.91;5094728;28;20168;-77
2022/10/16 06:15:35;;;;;;;8.37;5.33;;;;;;;9.83;nan;-24091.50;5093223;28;20166;-76
2022/10/16 06:18:00;;;;;;;9.87;4.57;;;;;;;10.13;nan;-24100.13;5075650;28;20172;-78
2022/10/16 06:20:26;;;;;;;9.77;5.17;;;;;;;10.04;nan;-24097.59;5094418;28;20169;-78
2022/10/16 06:22:51;;;;;;;14.93;5.60;;;;;;;10.02;nan;-24097.03;5093840;28;20391;-75
2022/10/16 06:25:17;;;;;;;10.00;6.30;;;;;;;10.35;nan;-24106.19;5075832;28;20582;-75
2022/10/16 06:27:42;;;;;;;9.27;5.37;;;;;;;10.12;nan;-24099.69;5094581;28;20766;-78
2022/10/16 06:30:08;;;;;;;10.77;5.45;;;;;;;10.45;nan;-24109.03;5094282;28;20184;-77
2022/10/16 06:32:33;;;;;;;12.80;5.50;;;;;;;10.41;nan;-24107.75;5093888;28;20169;-76
2022/10/16 06:34:59;;;;;;;7.73;5.00;;;;;;;10.54;nan;-24111.41;5094125;28;20641;-75
2022/10/16 06:37:24;;;;;;;6.20;4.10;;;;;;;10.59;nan;-24112.97;5094276;28;20214;-78
2022/10/16 06:39:52;;;;;;;10.00;4.80;;;;;;;10.77;nan;-24117.78;5075426;28;20216;-80
2022/10/16 06:42:18;;;;;;;6.13;4.43;;;;;;;11.17;nan;-24129.03;5075407;28;20201;-75
2022/10/16 06:44:43;;;;;;;7.60;3.88;;;;;;;11.26;nan;-24131.59;5075562;28;20218;-80
2022/10/16 06:47:09;;;;;;;7.07;4.18;;;;;;;11.16;nan;-24128.63;5094272;28;20230;-78
2022/10/16 06:49:34;;;;;;;6.47;3.90;;;;;;;11.26;nan;-24131.59;5075288;28;20208;-78
2022/10/16 06:51:59;;;;;;;7.05;3.88;;;;;;;11.55;nan;-24139.63;5075350;28;20644;-79
2022/10/16 06:54:25;;;;;;;6.80;4.35;;;;;;;11.22;nan;-24130.47;5075354;28;20176;-74
2022/10/16 06:56:51;;;;;;;6.20;3.53;;;;;;;10.58;nan;-24112.69;5093489;28;20181;-76
2022/10/16 06:59:16;;;;;;;6.82;4.15;;;;;;;11.22;nan;-24130.47;5074689;28;20208;-74
2022/10/16 07:01:42;;;;;;;6.70;4.15;;;;;;;11.24;nan;-24131.03;5093197;28;20169;-76
2022/10/16 07:04:07;;;;;;;6.35;4.18;;;;;;;11.38;nan;-24134.97;5093161;28;20212;-76
2022/10/16 07:06:33;;;;;;;8.02;4.55;;;;;;;11.45;nan;-24136.81;5093103;28;20702;-76
2022/10/16 07:09:02;;;;;;;6.85;4.25;;;;;;;12.09;nan;-24154.69;5093153;28;20205;-76
2022/10/16 07:11:27;;;;;;;5.28;3.97;;;;;;;9.23;nan;-24074.84;5074837;28;20285;-77
2022/10/16 07:13:53;;;;;;;7.15;4.03;;;;;;;12.10;nan;-24154.81;5074891;28;20654;-75
2022/10/16 07:16:20;;;;;;;5.20;4.00;;;;;;;12.29;nan;-24160.31;5093384;28;20180;-79
2022/10/16 07:18:48;;;;;;;6.50;4.53;;;;;;;12.51;nan;-24166.22;5092752;28;20184;-80
2022/10/16 07:21:19;;;;;;;11.30;4.50;;;;;;;12.43;nan;-24164.13;5095352;28;20192;-80
2022/10/16 07:23:45;;;;;;;5.65;3.70;;;;;;;12.53;nan;-24166.94;5075948;28;20233;-81
2022/10/16 07:26:10;;;;;;;8.73;4.40;;;;;;;12.90;nan;-24177.06;5093680;28;20253;-81
2022/10/16 07:28:37;;;;;;;7.93;4.55;;;;;;;13.09;nan;-24182.53;5075267;28;20207;-82
2022/10/16 07:31:05;;;;;;;6.32;4.18;;;;;;;13.19;nan;-24185.22;5093102;28;20197;-77
2022/10/16 07:33:31;;;;;;;8.23;4.20;;;;;;;13.22;nan;-24186.06;5093501;28;20170;-79
2022/10/16 07:35:56;;;;;;;7.47;4.00;;;;;;;12.98;nan;-24179.44;5074846;28;20173;-76
2022/10/16 07:38:22;;;;;;;9.30;4.43;;;;;;;12.89;nan;-24176.91;5075139;28;20177;-80
2022/10/16 07:40:55;;;;;;;6.82;4.63;;;;;;;13.45;nan;-24192.38;5075793;28;20171;-77
2022/10/16 07:43:20;;;;;;;6.90;4.10;;;;;;;13.39;nan;-24190.69;5093765;28;20173;-80
2022/10/16 07:45:49;;;;;;;7.05;4.30;;;;;;;13.77;nan;-24201.38;5076896;28;20172;-80
2022/10/16 07:48:16;;;;;;;6.45;4.57;;;;;;;13.53;nan;-24194.75;5077329;28;20189;-77
2022/10/16 07:50:42;;;;;;;8.65;5.13;;;;;;;14.02;nan;-24208.25;5076403;28;20193;-79
2022/10/16 07:53:08;;;;;;;6.45;4.10;;;;;;;13.75;nan;-24200.81;5094689;28;20209;-77
2022/10/16 07:55:33;;;;;;;7.75;4.95;;;;;;;13.95;nan;-24206.41;5077407;28;20375;-82
2022/10/16 07:57:59;;;;;;;5.90;4.03;;;;;;;14.10;nan;-24210.50;5096032;28;20200;-76
2022/10/16 08:00:24;;;;;;;6.95;4.32;;;;;;;14.19;nan;-24212.88;5078625;28;20628;-77
2022/10/16 08:02:50;;;;;;;6.88;4.00;;;;;;;14.28;nan;-24215.53;5095682;28;20177;-76
2022/10/16 08:05:15;;;;;;;8.85;4.55;;;;;;;14.47;nan;-24220.72;5095015;28;20385;-78
2022/10/16 08:07:43;;;;;;;6.47;3.90;;;;;;;14.59;nan;-24224.09;5095159;28;20522;-80
2022/10/16 08:10:17;;;;;;;4.97;3.72;;;;;;;14.64;nan;-24225.50;5075212;28;20188;-81
2022/10/16 08:12:42;;;;;;;5.53;4.07;;;;;;;14.77;nan;-24229.13;5078016;28;20212;-76
2022/10/16 08:15:09;;;;;;;7.40;4.45;;;;;;;14.00;nan;-24207.69;5098992;28;20606;-79
2022/10/16 08:17:34;;;;;;;5.97;4.15;;;;;;;14.30;nan;-24216.09;5091844;28;20553;-77
2022/10/16 08:19:59;;;;;;;6.70;3.63;;;;;;;14.96;nan;-24234.31;5092835;28;20180;-78
2022/10/16 08:22:25;;;;;;;6.53;4.07;;;;;;;14.93;nan;-24233.63;5092179;28;20353;-77
2022/10/16 08:24:50;;;;;;;9.27;4.40;;;;;;;15.15;nan;-24239.66;5074279;28;20176;-78
2022/10/16 08:27:16;;;;;;;5.05;3.75;;;;;;;15.24;nan;-24242.16;5093165;28;20189;-77
2022/10/16 08:29:41;;;;;;;6.00;4.00;;;;;;;15.22;nan;-24241.47;5074351;28;20626;-77
2022/10/16 08:32:06;;;;;;;7.03;4.38;;;;;;;15.32;nan;-24244.28;5091762;28;20645;-78
2022/10/16 08:34:32;;;;;;;8.65;4.15;;;;;;;15.46;nan;-24248.19;5092270;28;20173;-80
2022/10/16 08:36:57;;;;;;;6.68;4.28;;;;;;;15.60;nan;-24252.13;5073754;28;20177;-78
2022/10/16 08:39:23;;;;;;;5.90;4.13;;;;;;;15.80;nan;-24257.72;5092078;28;20173;-80
2022/10/16 08:41:54;;;;;;;6.43;4.13;;;;;;;15.79;nan;-24257.44;5074202;28;20157;-80
2022/10/16 08:44:32;;;;;;;5.82;4.30;;;;;;;15.65;nan;-24253.38;5075330;28;20188;-79
2022/10/16 08:47:26;;;;;;;5.50;4.13;;;;;;;15.96;nan;-24262.06;5093739;28;20169;-82
2022/10/16 08:49:54;;;;;;;6.78;3.70;;;;;;;16.01;nan;-24263.44;5092928;28;20233;-79
2022/10/16 08:52:20;;;;;;;5.60;3.38;;;;;;;15.90;nan;-24260.50;5073210;28;20748;-80
2022/10/16 08:54:48;;;;;;;5.00;3.72;;;;;;;15.98;nan;-24262.47;5073523;28;20169;-77
2022/10/16 08:57:20;;;;;;;7.25;4.25;;;;;;;16.46;nan;-24275.88;5091647;28;20173;-78
2022/10/16 08:59:45;;;;;;;6.88;3.72;;;;;;;16.33;nan;-24272.25;5073090;28;20303;-80
2022/10/16 09:02:26;;;;;;;4.85;3.53;;;;;;;16.67;nan;-24281.78;5091350;28;20197;-79
2022/10/16 09:04:52;;;;;;;5.40;3.42;;;;;;;17.13;nan;-24294.47;5053666;28;20174;-78
2022/10/16 09:07:29;;;;;;;7.05;4.00;;;;;;;16.85;nan;-24286.50;5054014;28;20180;-80
2022/10/16 09:10:12;;;;;;;5.68;3.55;;;;;;;16.96;nan;-24289.59;5053560;28;20227;-76
2022/10/16 09:13:04;;;;;;;4.88;3.88;;;;;;;16.81;nan;-24285.53;5071401;28;20262;-81
2022/10/16 09:15:37;;;;;;;5.10;3.42;;;;;;;16.81;nan;-24285.53;5034066;28;20178;-83
2022/10/16 09:18:06;;;;;;;5.45;3.72;;;;;;;17.22;nan;-24297.00;5057562;28;20484;-80
2022/10/16 09:20:42;;;;;;;5.57;3.53;;;;;;;17.09;nan;-24293.34;5075550;28;20166;-79
2022/10/16 09:23:18;;;;;;;5.38;3.72;;;;;;;17.00;nan;-24290.72;5057320;28;20229;-75
2022/10/16 09:25:47;;;;;;;5.15;3.60;;;;;;;17.03;nan;-24291.69;5075754;28;20664;-78
2022/10/16 09:28:13;;;;;;;5.47;3.40;;;;;;;17.15;nan;-24294.91;5058007;28;20174;-80
2022/10/16 09:30:42;;;;;;;6.13;3.70;;;;;;;17.53;nan;-24305.34;5075429;28;20202;-78
2022/10/16 09:33:10;;;;;;;3.97;3.22;;;;;;;17.72;nan;-24310.53;5057320;28;20206;-79
2022/10/16 09:35:43;;;;;;;3.97;3.08;;;;;;;17.92;nan;-24316.09;5073791;28;20170;-79
2022/10/16 09:38:21;;;;;;;5.50;3.47;;;;;;;17.95;nan;-24317.09;5057695;28;20261;-77
2022/10/16 09:40:46;;;;;;;8.70;3.58;;;;;;;18.30;nan;-24326.69;5058515;28;20281;-80
2022/10/16 09:43:29;;;;;;;4.80;3.08;;;;;;;18.45;nan;-24330.88;5075632;28;20274;-80
2022/10/16 09:46:18;;;;;;;4.47;3.25;;;;;;;18.49;nan;-24331.84;5094715;28;20188;-79
2022/10/16 09:48:47;;;;;;;4.97;2.90;;;;;;;18.39;nan;-24329.22;5080114;28;20803;-78
2022/10/16 09:51:35;;;;;;;5.32;3.53;;;;;;;18.06;nan;-24320.00;5094272;28;20687;-76
2022/10/16 09:54:12;;;;;;;4.82;3.17;;;;;;;18.58;nan;-24334.38;5075592;28;20165;-74
2022/10/16 09:56:41;;;;;;;5.47;3.25;;;;;;;18.63;nan;-24335.75;5076208;28;20173;-78
2022/10/16 09:59:21;;;;;;;5.90;3.28;;;;;;;18.78;nan;-24339.94;5094514;28;20185;-79
2022/10/16 10:01:50;;;;;;;7.55;3.83;;;;;;;18.93;nan;-24343.97;5094147;28;20180;-80
2022/10/16 10:04:17;;;;;;;5.47;3.30;;;;;;;19.03;nan;-24346.63;5075286;28;20181;-76
2022/10/16 10:06:52;;;;;;;4.70;3.33;;;;;;;19.11;nan;-24348.84;5075385;28;20208;-78
2022/10/16 10:09:25;;;;;;;6.85;3.50;;;;;;;19.23;nan;-24352.31;5075740;28;20192;-78
2022/10/16 10:11:58;;;;;;;6.68;3.58;;;;;;;19.12;nan;-24349.13;5075716;28;20209;-79
2022/10/16 10:14:36;;;;;;;5.15;2.85;;;;;;;18.82;nan;-24340.91;5076116;28;20257;-77
2022/10/16 10:17:14;;;;;;;6.70;3.53;;;;;;;18.54;nan;-24333.25;5075509;28;20173;-81
2022/10/16 10:19:45;;;;;;;3.88;2.88;;;;;;;18.98;nan;-24345.50;5074616;28;20173;-78
2022/10/16 10:22:17;;;;;;;4.35;2.65;;;;;;;19.00;nan;-24345.78;5074803;28;20173;-78
2022/10/16 10:25:04;;;;;;;4.32;2.45;;;;;;;19.35;nan;-24355.66;5073826;28;20195;-80
2022/10/16 10:27:39;;;;;;;3.38;2.60;;;;;;;19.35;nan;-24355.66;5064294;28;20189;-78
2022/10/16 10:30:14;;;;;;;4.28;2.65;;;;;;;19.44;nan;-24358.03;5093754;28;20252;-77
2022/10/16 10:33:06;;;;;;;4.22;2.65;;;;;;;19.42;nan;-24357.47;5094226;28;20240;-79
2022/10/16 10:35:39;;;;;;;3.53;2.60;;;;;;;19.54;nan;-24360.66;5093865;28;20190;-79
2022/10/16 10:38:19;;;;;;;3.88;2.65;;;;;;;19.68;nan;-24364.69;5093424;28;20230;-80
2022/10/16 10:41:03;;;;;;;3.15;2.40;;;;;;;19.70;nan;-24365.25;5093412;28;20380;-78
2022/10/16 10:43:48;;;;;;;4.60;3.00;;;;;;;19.70;nan;-24365.25;5093278;28;20174;-79
2022/10/16 10:46:56;;;;;;;3.08;2.25;;;;;;;19.85;nan;-24369.44;5075744;28;20173;-82
2022/10/16 10:49:53;;;;;;;3.10;2.75;;;;;;;19.46;nan;-24358.44;5015015;28;20270;-81
2022/10/16 10:52:27;;;;;;;4.03;2.72;;;;;;;19.68;nan;-24364.56;5031882;28;20237;-79
2022/10/16 10:55:13;;;;;;;5.32;3.10;;;;;;;19.68;nan;-24364.56;5059173;28;20615;-77
2022/10/16 10:58:01;;;;;;;4.65;3.05;;;;;;;19.98;nan;-24372.75;5076633;28;20640;-79
2022/10/16 11:00:42;;;;;;;4.65;2.67;;;;;;;19.88;nan;-24370.13;5075808;28;20173;-79
2022/10/16 11:03:38;;;;;;;4.57;2.72;;;;;;;19.93;nan;-24371.38;5075033;28;20573;-80
2022/10/16 11:06:10;;;;;;;4.53;2.70;;;;;;;19.66;nan;-24364.16;5093189;28;20195;-79
2022/10/16 11:08:43;;;;;;;4.25;3.35;;;;;;;19.68;nan;-24364.56;5093455;28;20168;-77
2022/10/16 11:11:26;;;;;;;4.63;2.70;;;;;;;19.87;nan;-24369.72;5093292;28;20247;-81
2022/10/16 11:13:52;;;;;;;4.80;2.97;;;;;;;20.05;nan;-24374.84;5092971;28;20243;-80
2022/10/16 11:16:28;;;;;;;4.57;2.72;;;;;;;20.07;nan;-24375.41;5093160;28;20170;-80
2022/10/16 11:18:56;;;;;;;3.53;2.60;;;;;;;20.17;nan;-24378.19;5093200;28;20169;-77
2022/10/16 11:21:23;;;;;;;3.97;2.85;;;;;;;20.10;nan;-24376.25;5074800;28;20667;-78
2022/10/16 11:23:57;;;;;;;3.85;2.55;;;;;;;19.79;nan;-24367.75;5092166;28;20270;-78
2022/10/16 11:26:28;;;;;;;3.60;2.83;;;;;;;19.78;nan;-24367.34;5074943;28;20213;-79
2022/10/16 11:28:56;;;;;;;4.88;3.00;;;;;;;20.01;nan;-24373.72;5074973;28;20169;-77
2022/10/16 11:31:43;;;;;;;3.72;2.60;;;;;;;20.04;nan;-24374.44;5074667;28;20229;-78
2022/10/16 11:34:27;;;;;;;4.55;2.47;;;;;;;19.97;nan;-24372.50;5092557;28;20226;-76
2022/10/16 11:37:01;;;;;;;3.40;2.50;;;;;;;19.77;nan;-24367.06;5092466;28;20175;-78
2022/10/16 11:39:28;;;;;;;4.45;2.72;;;;;;;19.64;nan;-24363.44;5085509;28;20202;-80
2022/10/16 11:42:21;;;;;;;4.05;2.58;;;;;;;19.52;nan;-24360.13;5084025;28;20260;-79
2022/10/16 11:45:26;;;;;;;4.65;2.78;;;;;;;19.59;nan;-24362.06;5092315;28;20309;-79
2022/10/16 11:48:38;;;;;;;3.47;2.30;;;;;;;19.73;nan;-24366.09;5091748;28;20243;-80
2022/10/16 11:51:23;;;;;;;3.42;2.53;;;;;;;19.60;nan;-24362.34;5059446;28;20596;-79
2022/10/16 11:54:01;;;;;;;3.38;2.30;;;;;;;19.52;nan;-24360.13;5092688;28;20187;-76
2022/10/16 11:56:30;;;;;;;6.07;2.53;;;;;;;19.17;nan;-24350.50;5092346;28;20184;-78
2022/10/16 11:59:01;;;;;;;4.85;2.53;;;;;;;19.24;nan;-24352.47;5092505;28;20181;-78
2022/10/16 12:01:37;;;;;;;3.50;2.35;;;;;;;19.02;nan;-24346.47;5074868;28;20177;-77